Terminal Aerodrome Forecast
Issued by NWS

Current Version | Previous Version | Text Only | Print | Product List | Glossary Off
Versions: 1 2 3 4 5 6 7 8 9 10 11 12 13 14 15 16 17 18 19 20 21 22

985
FTUS41 KPBZ 221510 AAA
TAFHLG
TAF AMD
KHLG 221510Z 2215/2312 32008KT P6SM BKN025
     FM221600 28008KT P6SM SCT035=

USA.gov is the U.S. government's official web portal to all federal, state and local government web resources and services.